Time;durP1;ratioP1;P1;durP2;ratioP2;P2;SDS_P1;SDS_P2;PMS_P1;PMS_P2;Temp;Humidity;BMP_temperature;BMP_pressure;BME280_temperature;BME280_humidity;BME280_pressure;Samples;Min_cycle;Max_cycle;Signal;HPM_P1;HPM_P2
2021/10/17 00:02:15;;;;;;;7.63;6.83;;;;;;;10.75;54.30;99898.44;4948497;29;20185;-79
2021/10/17 00:05:59;;;;;;;7.97;6.63;;;;;;;10.66;54.13;99899.72;4963439;23;20252;-79
2021/10/17 00:14:22;;;;;;;;;;;;;;;;;;;;;
2021/10/17 00:22:38;;;;;;;9.10;7.50;;;;;;;10.41;54.31;99898.78;4966040;29;20291;-79
2021/10/17 00:30:58;;;;;;;7.40;6.13;;;;;;;10.46;54.11;99907.81;4948580;29;20328;-79
2021/10/17 00:35:36;;;;;;;8.03;6.27;;;;;;;10.47;54.38;99922.88;4966353;28;20220;-79
2021/10/17 00:43:59;;;;;;;6.30;5.60;;;;;;;10.30;54.47;99913.66;4969028;23;20309;-78
2021/10/17 00:52:44;;;;;;;6.63;5.43;;;;;;;10.25;54.01;99918.81;4975015;29;20219;-79
2021/10/17 01:05:20;;;;;;;6.97;5.70;;;;;;;9.78;55.97;99903.84;4917860;29;20216;-78
2021/10/17 01:22:27;;;;;;;8.10;5.97;;;;;;;10.02;54.59;99889.00;4892316;23;20243;-78
2021/10/17 01:43:55;;;;;;;7.10;5.83;;;;;;;9.92;54.44;99885.91;4958749;28;20276;-78
2021/10/17 02:08:57;;;;;;;6.20;5.20;;;;;;;9.54;54.42;99878.56;4958157;29;20236;-78
2021/10/17 02:39:36;;;;;;;6.13;5.17;;;;;;;9.42;54.13;99893.59;5070913;28;20299;-78
2021/10/17 02:43:23;;;;;;;5.27;4.77;;;;;;;9.36;54.72;99874.84;5088742;28;20243;-79
2021/10/17 03:00:44;;;;;;;4.93;4.33;;;;;;;9.23;54.11;99891.72;5103073;28;20223;-78
2021/10/17 03:08:59;;;;;;;5.43;4.90;;;;;;;9.15;53.94;99903.41;5111586;22;20220;-79
2021/10/17 03:24:59;;;;;;;5.33;4.57;;;;;;;9.07;53.92;99898.28;5164068;22;20175;-79
2021/10/17 03:28:47;;;;;;;5.20;4.53;;;;;;;9.01;54.29;99907.09;5130867;22;20225;-79
2021/10/17 03:32:53;;;;;;;5.40;4.80;;;;;;;8.86;54.68;99900.31;5070977;28;20239;-79
2021/10/17 03:37:22;;;;;;;5.27;3.93;;;;;;;8.80;54.67;99889.38;5076820;28;20223;-79
2021/10/17 03:40:56;;;;;;;5.13;4.30;;;;;;;8.83;55.33;99893.50;5075092;28;20288;-78
2021/10/17 03:54:04;;;;;;;4.47;4.07;;;;;;;8.75;54.26;99897.19;5074957;28;20323;-79
2021/10/17 03:57:52;;;;;;;4.33;3.93;;;;;;;8.78;54.99;99893.28;5054683;28;20644;-79
2021/10/17 04:06:26;;;;;;;5.03;3.97;;;;;;;8.61;55.45;99898.16;5061994;28;20222;-79
2021/10/17 04:13:56;;;;;;;4.97;3.80;;;;;;;8.48;54.99;99898.13;5110259;28;20292;-79
2021/10/17 04:22:32;;;;;;;4.57;4.17;;;;;;;8.48;54.86;99891.94;5104876;28;20244;-79
2021/10/17 04:30:48;;;;;;;4.67;4.10;;;;;;;8.44;54.91;99886.19;5052202;22;20232;-79
2021/10/17 04:34:30;;;;;;;4.73;4.23;;;;;;;8.50;55.00;99885.38;5068748;28;20251;-79
2021/10/17 04:42:29;;;;;;;5.57;4.40;;;;;;;8.47;55.44;99882.28;5109943;28;20238;-79
2021/10/17 04:51:55;;;;;;;5.60;4.33;;;;;;;8.39;55.04;99877.97;5107563;28;20230;-79
2021/10/17 05:00:24;;;;;;;5.53;4.33;;;;;;;8.43;55.24;99875.72;5106699;28;20223;-80
2021/10/17 05:12:19;;;;;;;5.17;4.17;;;;;;;8.42;55.22;99879.38;5110875;28;20250;-79
2021/10/17 05:15:35;;;;;;;5.20;4.30;;;;;;;8.49;55.48;99905.09;5084096;28;20236;-79
2021/10/17 05:18:56;;;;;;;4.73;4.23;;;;;;;8.45;55.42;99906.50;5109705;28;20236;-79
2021/10/17 05:35:36;;;;;;;6.80;4.80;;;;;;;8.56;54.99;99897.13;5070890;28;20237;-79
2021/10/17 05:43:37;;;;;;;6.40;5.80;;;;;;;8.94;54.00;99924.16;5012765;28;20214;-79
2021/10/17 05:47:40;;;;;;;7.70;4.90;;;;;;;8.87;54.64;99918.78;5022729;23;20315;-79
2021/10/17 06:00:38;;;;;;;7.30;4.80;;;;;;;9.34;53.27;99939.22;4967983;29;20217;-79
2021/10/17 06:04:18;;;;;;;7.40;5.90;;;;;;;9.50;53.97;99954.06;4974538;29;20303;-79
2021/10/17 06:12:29;;;;;;;6.23;5.23;;;;;;;9.91;53.57;99959.22;4956624;29;20264;-79
2021/10/17 06:15:22;;;;;;;6.67;5.47;;;;;;;10.06;53.38;99955.28;4951334;28;20236;-79
2021/10/17 06:18:16;;;;;;;7.03;6.17;;;;;;;10.15;53.62;99956.75;4999180;28;20249;-78
2021/10/17 06:21:28;;;;;;;7.07;5.93;;;;;;;10.35;53.10;99970.09;4988556;28;20613;-78
2021/10/17 06:24:29;;;;;;;6.20;5.60;;;;;;;10.51;52.81;99974.97;5013749;28;20291;-78
2021/10/17 06:28:01;;;;;;;7.27;5.73;;;;;;;10.70;53.56;99972.44;4999847;28;20935;-78
2021/10/17 06:31:55;;;;;;;8.77;7.40;;;;;;;10.90;53.79;99975.88;4995622;28;20222;-78
2021/10/17 06:43:32;;;;;;;6.27;5.67;;;;;;;11.49;53.42;99978.22;5013122;28;20210;-79
2021/10/17 06:47:32;;;;;;;6.80;5.47;;;;;;;11.60;52.77;99993.63;5003982;28;20226;-79
2021/10/17 06:51:28;;;;;;;6.60;5.70;;;;;;;11.84;52.42;99997.41;5013734;28;20230;-78
2021/10/17 06:55:36;;;;;;;7.30;5.87;;;;;;;12.04;51.80;99997.25;5019962;28;20196;-77
2021/10/17 06:59:18;;;;;;;15.67;10.37;;;;;;;12.23;51.69;99993.53;5104555;23;20251;-77
2021/10/17 07:07:13;;;;;;;11.10;8.63;;;;;;;12.53;51.51;100001.72;5037814;23;20258;-78
2021/10/17 07:10:32;;;;;;;18.87;13.07;;;;;;;12.70;51.67;100000.06;5094580;23;20231;-77
2021/10/17 07:14:15;;;;;;;11.90;9.37;;;;;;;12.82;50.74;99989.41;5026438;23;20241;-77
2021/10/17 07:17:32;;;;;;;8.77;7.80;;;;;;;13.03;51.12;99989.72;5004439;23;20325;-78
2021/10/17 07:21:44;;;;;;;9.43;6.83;;;;;;;12.82;51.96;99995.59;5012953;28;20227;-77
2021/10/17 07:25:41;;;;;;;7.70;6.90;;;;;;;13.34;50.69;99996.81;5040289;23;20614;-78
2021/10/17 07:29:57;;;;;;;9.93;8.27;;;;;;;13.50;50.61;99989.94;5077626;23;20220;-77
2021/10/17 07:42:42;;;;;;;11.67;8.77;;;;;;;14.07;50.46;99986.53;5034564;23;20295;-77
2021/10/17 07:46:34;;;;;;;13.30;9.17;;;;;;;13.88;50.12;99990.38;5044670;23;20257;-78
2021/10/17 07:54:41;;;;;;;11.10;9.80;;;;;;;13.50;51.00;99985.38;5056118;23;20221;-77
2021/10/17 08:03:26;;;;;;;13.13;9.37;;;;;;;14.48;49.16;99984.78;5065006;23;20317;-78
2021/10/17 08:07:24;;;;;;;10.33;8.50;;;;;;;14.64;49.56;99989.47;5056241;23;20690;-78
2021/10/17 08:20:24;;;;;;;11.50;9.67;;;;;;;14.63;50.57;99990.53;5034265;28;20207;-78
2021/10/17 08:28:45;;;;;;;;;;;;;;;;;;;;;
2021/10/17 09:01:55;;;;;;;16.03;11.07;;;;;;;16.21;47.03;99985.06;5145066;23;20262;-78
2021/10/17 09:06:47;;;;;;;14.07;11.20;;;;;;;16.08;45.45;99981.91;5059360;23;20259;-78
2021/10/17 09:15:28;;;;;;;14.20;10.57;;;;;;;16.33;45.82;99978.75;5020609;28;20360;-79
2021/10/17 09:18:46;;;;;;;12.83;9.90;;;;;;;16.66;46.20;99970.56;5038094;23;20496;-77
2021/10/17 09:54:11;;;;;;;10.53;8.13;;;;;;;18.34;43.70;99965.72;4987092;28;20270;-78
2021/10/17 10:06:49;;;;;;;9.30;7.67;;;;;;;19.13;40.81;99950.06;5062575;23;20260;-78
2021/10/17 10:11:10;;;;;;;9.70;7.57;;;;;;;19.26;41.06;99943.34;5037963;23;20230;-79
2021/10/17 10:15:08;;;;;;;9.83;7.43;;;;;;;19.40;40.80;99941.72;5030050;23;20229;-78
2021/10/17 10:19:49;;;;;;;9.50;7.63;;;;;;;19.29;41.17;99937.34;5039354;23;20257;-78
2021/10/17 10:24:07;;;;;;;;;;;;;;;;;;;;;
2021/10/17 10:28:28;;;;;;;12.00;8.03;;;;;;;19.76;40.18;99934.44;5067817;23;20275;31
2021/10/17 10:49:55;;;;;;;7.70;6.73;;;;;;;20.34;38.96;99918.59;5056682;23;20243;-78
2021/10/17 11:20:16;;;;;;;6.80;6.10;;;;;;;21.32;36.56;99896.91;5060512;28;20249;-85
2021/10/17 11:24:31;;;;;;;6.33;5.73;;;;;;;21.60;35.96;99887.97;5053304;28;20226;-86
2021/10/17 11:28:13;;;;;;;7.30;6.37;;;;;;;21.55;36.05;99863.47;5039172;28;20221;-86
2021/10/17 11:33:07;;;;;;;6.73;5.87;;;;;;;21.52;36.60;99874.94;5045005;28;20353;-84
2021/10/17 11:36:12;;;;;;;7.03;5.30;;;;;;;21.63;36.05;99876.47;5020621;28;20222;-83
2021/10/17 11:40:13;;;;;;;6.70;5.83;;;;;;;21.67;35.40;99876.72;5029071;28;20314;-87
2021/10/17 11:44:11;;;;;;;6.30;5.53;;;;;;;22.04;35.55;99867.94;5034871;28;20722;-84
2021/10/17 11:48:04;;;;;;;6.27;5.47;;;;;;;22.07;34.96;99873.59;5037982;28;20622;-86
2021/10/17 11:52:02;;;;;;;8.00;5.20;;;;;;;22.33;34.72;99865.97;5019754;28;20263;-88
2021/10/17 11:55:35;;;;;;;6.33;5.50;;;;;;;22.22;35.07;99864.44;5016811;28;20223;-86
2021/10/17 11:59:29;;;;;;;11.17;6.30;;;;;;;21.99;34.76;99863.34;4999641;28;20233;-86
2021/10/17 12:06:51;;;;;;;6.07;5.47;;;;;;;21.82;34.89;99854.75;5018644;28;20297;-85
2021/10/17 12:27:34;;;;;;;5.30;4.80;;;;;;;22.68;33.68;99824.53;5041104;28;20736;-85
2021/10/17 12:33:37;;;;;;;7.93;5.13;;;;;;;23.25;32.78;99822.63;5034276;28;20223;-88
2021/10/17 12:40:52;;;;;;;5.30;4.80;;;;;;;23.03;32.49;99825.16;5051097;28;20220;-81
2021/10/17 12:45:10;;;;;;;6.03;4.30;;;;;;;22.83;33.35;99818.09;5044316;28;20742;-89
2021/10/17 13:18:19;;;;;;;4.70;4.00;;;;;;;23.40;31.65;99799.69;5024344;28;20271;-87
2021/10/17 13:20:47;;;;;;;5.80;4.17;;;;;;;23.53;31.15;99793.47;5000545;28;20224;-88
2021/10/17 13:23:17;;;;;;;6.27;4.30;;;;;;;23.65;31.16;99799.28;4983394;28;20224;-87
2021/10/17 13:25:47;;;;;;;6.37;4.80;;;;;;;23.64;31.03;99806.69;4993717;28;20229;-87
2021/10/17 13:28:13;;;;;;;6.07;4.40;;;;;;;23.29;31.58;99796.31;4995492;28;20227;-87
2021/10/17 13:30:40;;;;;;;5.57;4.30;;;;;;;23.35;31.31;99797.84;5007580;28;20241;-81
2021/10/17 13:33:07;;;;;;;5.73;4.13;;;;;;;23.31;31.07;99793.28;4978216;28;20218;-88
2021/10/17 13:35:36;;;;;;;8.33;4.40;;;;;;;23.30;31.26;99786.19;5008959;28;20316;-87
2021/10/17 13:38:04;;;;;;;4.40;4.00;;;;;;;23.28;31.26;99800.19;5009261;28;20512;-87
2021/10/17 13:40:33;;;;;;;4.97;3.97;;;;;;;23.57;30.91;99794.50;4972439;28;20227;-83
2021/10/17 13:43:25;;;;;;;5.03;3.93;;;;;;;23.64;30.69;99795.75;5254416;23;21023;-79
2021/10/17 13:45:52;;;;;;;7.40;4.10;;;;;;;23.61;30.93;99790.03;5031104;28;20217;-85
2021/10/17 13:48:19;;;;;;;5.37;4.03;;;;;;;23.50;30.78;99783.97;4973115;28;20237;-86
2021/10/17 13:50:46;;;;;;;5.37;4.00;;;;;;;23.50;31.11;99789.44;4992007;28;20246;-85
2021/10/17 13:53:13;;;;;;;4.50;4.07;;;;;;;23.39;31.13;99782.47;4994149;28;20237;-83
2021/10/17 13:55:40;;;;;;;5.03;4.00;;;;;;;23.51;30.88;99787.50;5002322;28;20231;-85
2021/10/17 13:58:06;;;;;;;5.83;3.77;;;;;;;23.54;31.05;99789.63;5001799;28;20656;-83
2021/10/17 14:00:33;;;;;;;5.60;4.00;;;;;;;23.43;31.03;99779.94;4998736;28;20311;-83
2021/10/17 14:03:00;;;;;;;6.90;4.33;;;;;;;23.49;30.84;99776.06;4998801;28;20297;-81
2021/10/17 14:05:29;;;;;;;6.37;4.00;;;;;;;23.41;30.59;99784.91;4982201;28;20237;-84
2021/10/17 14:07:56;;;;;;;3.90;3.40;;;;;;;23.19;31.38;99778.16;4982910;28;20608;-87
2021/10/17 14:10:23;;;;;;;6.60;3.97;;;;;;;23.23;31.70;99781.94;5015586;28;20226;-84
2021/10/17 14:12:50;;;;;;;6.70;3.60;;;;;;;23.04;31.98;99774.88;4985832;28;20229;-86
2021/10/17 14:15:17;;;;;;;5.73;3.90;;;;;;;22.92;31.89;99779.97;5017992;28;20222;-84
2021/10/17 14:17:43;;;;;;;3.47;3.13;;;;;;;23.03;32.30;99773.25;5002101;28;20677;-84
2021/10/17 14:20:10;;;;;;;4.67;3.30;;;;;;;22.77;32.52;99776.38;5001990;28;20629;-87
2021/10/17 14:22:37;;;;;;;3.90;3.50;;;;;;;22.79;32.66;99776.09;4982243;28;20226;-85
2021/10/17 14:25:05;;;;;;;5.00;3.83;;;;;;;22.69;32.69;99773.47;4998600;28;20241;-83
2021/10/17 14:27:32;;;;;;;4.97;3.60;;;;;;;22.68;32.45;99766.38;4998802;28;20234;-84
2021/10/17 14:29:59;;;;;;;4.37;3.47;;;;;;;22.62;32.93;99768.41;5001566;28;20595;-86
2021/10/17 14:32:26;;;;;;;5.53;3.27;;;;;;;22.62;33.06;99771.13;4998257;28;20244;-85
2021/10/17 14:34:53;;;;;;;5.77;3.70;;;;;;;22.66;33.20;99761.22;4998275;28;20614;-85
2021/10/17 14:37:20;;;;;;;6.27;3.90;;;;;;;22.50;32.85;99765.28;4987366;28;20222;-84
2021/10/17 14:39:47;;;;;;;4.43;3.80;;;;;;;22.48;33.02;99766.69;5001754;28;20234;-87
2021/10/17 14:42:19;;;;;;;4.67;3.90;;;;;;;22.27;33.64;99766.13;5034094;28;20241;-89
2021/10/17 14:44:46;;;;;;;4.60;3.87;;;;;;;22.16;34.19;99764.66;5003212;28;20303;-88
2021/10/17 14:47:12;;;;;;;4.70;3.90;;;;;;;21.68;35.37;99767.38;4978781;28;20311;-85
2021/10/17 14:49:39;;;;;;;5.00;3.80;;;;;;;21.50;35.64;99777.09;4978666;28;20228;-87
2021/10/17 14:52:07;;;;;;;5.80;3.57;;;;;;;21.62;35.61;99754.88;4978280;28;20237;-86
2021/10/17 14:54:34;;;;;;;6.40;3.90;;;;;;;21.72;35.18;99765.69;4997611;28;20517;-87
2021/10/17 14:57:01;;;;;;;4.33;3.80;;;;;;;21.73;35.22;99770.03;5017577;28;20228;-87
2021/10/17 14:59:28;;;;;;;4.40;3.77;;;;;;;21.70;35.49;99753.44;5005470;28;20551;-87
2021/10/17 15:02:00;;;;;;;5.40;3.73;;;;;;;21.71;35.25;99764.06;4971152;28;20233;-83
2021/10/17 15:04:29;;;;;;;4.40;3.63;;;;;;;21.71;35.39;99768.69;4995910;28;20226;-86
2021/10/17 15:06:59;;;;;;;5.67;4.10;;;;;;;21.61;35.76;99763.34;4996561;28;20229;-86
2021/10/17 15:09:32;;;;;;;5.20;3.93;;;;;;;21.56;35.77;99761.47;4981567;28;20225;-86
2021/10/17 15:12:00;;;;;;;6.57;3.83;;;;;;;21.36;36.13;99770.69;5013600;28;20324;-87
2021/10/17 15:14:28;;;;;;;5.57;3.47;;;;;;;21.51;35.99;99775.16;4981074;28;20312;-87
2021/10/17 15:16:54;;;;;;;4.80;3.57;;;;;;;21.41;36.60;99772.56;4997261;28;20310;-84
2021/10/17 15:19:23;;;;;;;6.40;3.80;;;;;;;21.34;36.96;99772.06;5013306;28;20254;-86
2021/10/17 15:21:50;;;;;;;3.87;3.23;;;;;;;21.20;37.51;99769.19;4995163;28;20233;-86
2021/10/17 15:24:17;;;;;;;6.40;3.83;;;;;;;21.07;37.52;99761.66;4979462;28;20230;-80
2021/10/17 15:26:45;;;;;;;4.77;3.80;;;;;;;20.97;37.63;99764.44;4992346;28;20240;-82
2021/10/17 15:29:13;;;;;;;4.77;3.90;;;;;;;20.83;37.80;99763.47;5000887;28;20317;-85
2021/10/17 15:31:40;;;;;;;4.20;3.57;;;;;;;20.80;37.73;99774.94;4984368;28;20228;-79
2021/10/17 15:34:08;;;;;;;5.00;3.83;;;;;;;20.69;38.22;99779.63;5000169;28;20236;-85
2021/10/17 15:36:35;;;;;;;4.13;3.73;;;;;;;20.51;39.15;99778.38;4984740;28;20224;-87
2021/10/17 15:39:04;;;;;;;4.40;3.40;;;;;;;20.36;39.76;99764.84;5000488;28;20682;-81
2021/10/17 15:41:35;;;;;;;5.10;3.87;;;;;;;20.21;40.27;99775.78;5016626;28;20260;-83
2021/10/17 15:44:04;;;;;;;5.37;3.60;;;;;;;20.06;40.55;99787.53;5018962;28;20241;-87
2021/10/17 15:46:31;;;;;;;4.70;3.77;;;;;;;20.00;41.19;99796.00;5019688;28;20314;-86
2021/10/17 15:49:00;;;;;;;4.17;3.77;;;;;;;19.85;41.55;99801.47;5003334;28;20518;-85
2021/10/17 15:51:27;;;;;;;4.50;3.80;;;;;;;19.65;41.93;99799.59;5020415;28;20228;-84
2021/10/17 15:53:57;;;;;;;4.27;3.87;;;;;;;19.45;42.42;99805.91;5004083;28;20623;-86
2021/10/17 15:56:24;;;;;;;4.23;3.83;;;;;;;19.34;42.82;99812.41;4997593;28;20306;-86
2021/10/17 15:58:51;;;;;;;6.40;4.20;;;;;;;19.18;42.97;99810.75;4993572;28;20310;-82
2021/10/17 16:01:17;;;;;;;4.77;4.10;;;;;;;18.95;43.40;99808.56;5025433;28;20233;-78
2021/10/17 16:03:50;;;;;;;4.83;4.27;;;;;;;18.92;43.80;99813.47;5034134;28;20229;-79
2021/10/17 16:06:53;;;;;;;4.63;4.10;;;;;;;18.77;44.15;99816.16;5055317;28;20254;-78
2021/10/17 16:09:35;;;;;;;6.97;4.80;;;;;;;18.72;44.65;99820.75;5056882;28;20190;-78
2021/10/17 16:12:16;;;;;;;6.50;4.70;;;;;;;18.72;44.97;99824.28;5038317;28;20241;-77
2021/10/17 16:15:25;;;;;;;5.77;5.23;;;;;;;18.56;45.34;99802.81;5056780;28;20221;-78
2021/10/17 16:17:56;;;;;;;8.17;6.40;;;;;;;18.62;45.49;99831.56;5056832;28;20984;-77
2021/10/17 16:20:29;;;;;;;7.97;7.17;;;;;;;18.55;45.56;99817.44;5067377;23;20229;-78
2021/10/17 16:23:33;;;;;;;9.63;7.60;;;;;;;18.57;45.98;99828.88;5093853;23;20286;-77
2021/10/17 16:26:17;;;;;;;8.00;7.20;;;;;;;18.63;45.69;99844.06;5078238;23;20308;-78
2021/10/17 16:29:11;;;;;;;11.30;8.43;;;;;;;18.57;45.80;99828.88;5058552;23;20248;-77
2021/10/17 16:31:53;;;;;;;10.43;8.40;;;;;;;18.46;46.32;99819.84;5081909;23;20242;-78
2021/10/17 16:34:24;;;;;;;10.97;8.60;;;;;;;18.52;46.52;99839.66;5036146;28;20225;-77
2021/10/17 16:37:04;;;;;;;10.97;9.20;;;;;;;18.46;46.37;99839.66;5087611;23;20292;-77
2021/10/17 16:39:39;;;;;;;9.60;8.60;;;;;;;18.46;46.42;99834.22;5055025;23;20229;-78
2021/10/17 16:42:06;;;;;;;11.40;8.63;;;;;;;18.43;46.48;99831.22;5143428;23;20260;-78
2021/10/17 16:44:36;;;;;;;12.27;9.97;;;;;;;18.60;46.33;99847.31;5061270;23;20269;-77
2021/10/17 16:50:56;;;;;;;11.23;9.97;;;;;;;18.64;46.56;99856.56;5072456;22;20256;-77
2021/10/17 16:53:30;;;;;;;10.50;8.60;;;;;;;18.65;46.92;99853.59;5073862;28;20517;-78
2021/10/17 16:56:48;;;;;;;9.50;8.40;;;;;;;18.68;46.71;99861.19;5032294;28;20298;-77
2021/10/17 16:59:47;;;;;;;11.33;9.83;;;;;;;18.57;46.94;99861.44;5052643;23;20229;-77
2021/10/17 17:02:20;;;;;;;13.97;10.23;;;;;;;18.49;47.26;99852.69;5073509;28;20251;-77
2021/10/17 17:04:56;;;;;;;14.00;9.80;;;;;;;18.65;47.08;99867.16;5076200;23;20273;-78
2021/10/17 17:08:33;;;;;;;11.30;9.20;;;;;;;18.69;47.24;99867.44;5070435;23;20233;-77
2021/10/17 17:11:29;;;;;;;10.53;9.43;;;;;;;18.72;47.53;99864.16;5074891;28;20221;-77
2021/10/17 17:14:22;;;;;;;10.03;6.80;;;;;;;18.75;47.32;99877.22;5072625;23;20229;-78
2021/10/17 17:17:13;;;;;;;7.63;6.93;;;;;;;18.68;47.26;99858.47;5047391;28;20235;-77
2021/10/17 17:19:53;;;;;;;10.47;7.57;;;;;;;18.76;47.36;99870.69;5075087;28;20373;-77
2021/10/17 17:22:35;;;;;;;7.67;6.80;;;;;;;18.78;47.25;99880.22;5058071;28;20208;-78
2021/10/17 17:25:13;;;;;;;8.47;7.60;;;;;;;18.71;47.52;99870.69;5080893;23;20189;-77
2021/10/17 17:28:17;;;;;;;8.80;5.90;;;;;;;18.68;47.40;99872.03;5066166;28;20228;-77
2021/10/17 17:30:47;;;;;;;7.93;5.87;;;;;;;18.64;47.58;99879.09;5087471;23;20232;-77
2021/10/17 17:33:21;;;;;;;6.77;6.03;;;;;;;18.65;47.62;99874.47;5035895;28;20244;-78
2021/10/17 17:35:50;;;;;;;9.27;6.40;;;;;;;18.62;47.84;99875.81;5053851;28;20193;-78
2021/10/17 17:38:24;;;;;;;7.80;6.30;;;;;;;18.57;47.65;99864.16;5108021;22;20674;-78
2021/10/17 17:40:51;;;;;;;8.20;6.17;;;;;;;18.63;47.93;99880.16;5040116;23;20285;-80
2021/10/17 17:43:27;;;;;;;7.50;6.17;;;;;;;18.65;47.85;99879.91;5043602;23;20272;-80
2021/10/17 17:45:57;;;;;;;8.17;5.90;;;;;;;18.65;48.05;99874.47;5018608;23;20213;-80
2021/10/17 17:48:49;;;;;;;8.83;6.13;;;;;;;18.57;47.48;99867.66;5054677;23;20303;-80
2021/10/17 17:51:19;;;;;;;6.47;5.83;;;;;;;18.61;47.86;99878.81;5055437;28;20205;-80
2021/10/17 17:53:46;;;;;;;6.70;6.00;;;;;;;18.61;47.33;99889.66;5061210;23;20217;-80
2021/10/17 17:56:18;;;;;;;8.07;6.00;;;;;;;18.65;47.67;99888.03;5034735;23;20226;-80
2021/10/17 17:58:48;;;;;;;6.77;6.07;;;;;;;18.61;47.64;99882.34;5048082;28;20705;-79
2021/10/17 18:01:23;;;;;;;9.40;6.27;;;;;;;18.63;47.73;99895.63;5060671;28;20553;-80
2021/10/17 18:03:56;;;;;;;7.27;6.20;;;;;;;18.59;47.61;99889.91;5059083;28;20628;-80
2021/10/17 18:06:25;;;;;;;7.93;6.73;;;;;;;18.67;47.60;99892.09;5008584;28;20232;-81
2021/10/17 18:08:56;;;;;;;8.37;6.87;;;;;;;18.65;47.76;99896.19;5059770;28;20300;-80
2021/10/17 18:11:26;;;;;;;8.73;7.83;;;;;;;18.64;47.71;99908.94;5019302;28;20268;-80
2021/10/17 18:13:54;;;;;;;10.83;7.70;;;;;;;18.61;47.91;99909.47;5043591;28;20263;-80
2021/10/17 18:16:23;;;;;;;12.17;8.67;;;;;;;18.61;47.65;99904.03;5028882;28;20210;-79
2021/10/17 18:18:56;;;;;;;9.53;8.00;;;;;;;18.54;47.92;99897.22;5014633;28;20218;-80
2021/10/17 18:21:23;;;;;;;8.43;7.43;;;;;;;18.42;48.12;99881.13;5051692;28;20186;-80
2021/10/17 18:23:51;;;;;;;8.60;7.70;;;;;;;18.57;48.48;99910.28;5061516;28;20256;-80
2021/10/17 18:26:18;;;;;;;10.60;8.23;;;;;;;18.47;48.50;99892.03;5046521;28;20213;-80
2021/10/17 18:28:56;;;;;;;9.00;8.20;;;;;;;18.48;49.02;99907.19;5067597;28;20195;-80
2021/10/17 18:31:24;;;;;;;8.70;7.73;;;;;;;18.32;48.83;99884.63;5068903;28;20212;-80
2021/10/17 18:33:54;;;;;;;9.27;8.33;;;;;;;18.40;48.93;99900.38;5046716;28;20270;-80
2021/10/17 18:36:21;;;;;;;9.10;8.20;;;;;;;18.41;48.82;99901.19;5019285;28;20334;-80
2021/10/17 18:38:47;;;;;;;8.67;7.77;;;;;;;18.33;49.25;99899.00;5048066;28;20205;-80
2021/10/17 18:41:16;;;;;;;9.00;8.10;;;;;;;18.22;49.50;99908.16;5033463;28;20222;-79
2021/10/17 18:43:50;;;;;;;8.43;7.50;;;;;;;18.28;49.54;99904.41;5052709;28;20277;-80
2021/10/17 18:46:37;;;;;;;8.17;7.37;;;;;;;18.25;49.62;99903.00;5044232;23;20237;-80
2021/10/17 18:49:24;;;;;;;8.03;6.77;;;;;;;18.18;49.62;99896.19;5051425;28;20233;-79
2021/10/17 18:51:51;;;;;;;9.30;7.13;;;;;;;18.14;49.87;99909.47;5051562;28;20800;-80
2021/10/17 18:54:24;;;;;;;8.10;7.30;;;;;;;18.10;49.83;99899.41;5042485;23;20252;-80
2021/10/17 18:56:57;;;;;;;7.30;6.60;;;;;;;18.13;49.71;99909.72;5071103;28;20251;-81
2021/10/17 18:59:30;;;;;;;7.33;6.73;;;;;;;18.08;49.46;99906.97;5073055;28;20213;-80
2021/10/17 19:02:22;;;;;;;7.47;6.70;;;;;;;18.02;49.53;99898.00;5071493;28;20243;-80
2021/10/17 19:05:05;;;;;;;7.40;6.70;;;;;;;17.92;49.84;99908.75;5083149;23;20248;-79
2021/10/17 19:07:47;;;;;;;6.80;6.20;;;;;;;17.82;50.05;99906.84;5074361;28;20256;-80
2021/10/17 19:10:21;;;;;;;7.57;6.40;;;;;;;17.78;50.08;99913.81;5065912;23;20232;-79
2021/10/17 19:12:57;;;;;;;7.00;6.30;;;;;;;17.74;50.24;99899.16;5009777;28;20174;-81
2021/10/17 19:15:32;;;;;;;6.83;6.07;;;;;;;17.88;50.25;99918.50;5080497;23;20225;-80
2021/10/17 19:18:09;;;;;;;9.30;7.00;;;;;;;17.81;50.16;99909.78;5065278;23;20205;-82
2021/10/17 19:20:42;;;;;;;8.70;6.30;;;;;;;17.83;50.16;99921.16;5077431;23;20236;-80
2021/10/17 19:23:30;;;;;;;7.87;6.40;;;;;;;17.79;50.10;99923.59;5094988;23;20236;-79
2021/10/17 19:26:00;;;;;;;8.17;6.53;;;;;;;17.78;50.40;99918.41;5081389;23;20206;-79
2021/10/17 19:28:50;;;;;;;6.87;6.27;;;;;;;17.51;50.54;99892.19;5046542;28;20248;-80
2021/10/17 19:31:17;;;;;;;8.63;7.00;;;;;;;17.70;50.64;99929.75;5044550;23;20252;-79
2021/10/17 19:33:51;;;;;;;9.67;6.63;;;;;;;17.54;50.92;99910.63;5044652;28;20236;-78
2021/10/17 19:36:29;;;;;;;8.27;6.53;;;;;;;17.59;50.45;99929.66;4982828;28;20264;-79
2021/10/17 19:39:39;;;;;;;9.03;6.63;;;;;;;17.59;50.92;99934.25;5071689;22;20213;-79
2021/10/17 19:42:24;;;;;;;7.80;7.00;;;;;;;17.59;50.71;99937.78;5345012;23;20217;-78
2021/10/17 19:44:54;;;;;;;7.40;6.70;;;;;;;17.57;50.90;99939.91;5046459;23;20281;-80
2021/10/17 19:47:36;;;;;;;8.07;7.27;;;;;;;17.58;50.80;99944.31;5052817;23;20248;-80
2021/10/17 19:50:40;;;;;;;7.80;6.33;;;;;;;17.56;50.53;99942.88;5084965;23;20233;-78
2021/10/17 19:53:26;;;;;;;8.37;6.97;;;;;;;17.36;50.79;99931.84;5083980;23;20239;-79
2021/10/17 19:55:58;;;;;;;7.97;6.73;;;;;;;17.41;50.88;99940.03;5060168;28;20577;-78
2021/10/17 19:58:55;;;;;;;8.33;7.03;;;;;;;17.26;50.95;99935.28;5057378;23;20232;-80
2021/10/17 20:01:43;;;;;;;8.03;6.47;;;;;;;17.27;50.86;99955.03;5035717;23;20245;-78
2021/10/17 20:04:16;;;;;;;9.03;7.63;;;;;;;17.28;50.89;99948.56;5066183;22;20213;-79
2021/10/17 20:06:48;;;;;;;7.53;6.80;;;;;;;17.20;51.06;99939.03;5048592;23;20233;-78
2021/10/17 20:09:14;;;;;;;8.10;6.77;;;;;;;17.09;50.99;99935.38;5074708;23;20225;-78
2021/10/17 20:11:41;;;;;;;8.60;6.87;;;;;;;17.15;51.03;99949.78;5040385;28;20214;-79
2021/10/17 20:14:15;;;;;;;8.63;7.50;;;;;;;17.12;50.76;99945.69;5054924;28;20232;-79
2021/10/17 20:16:59;;;;;;;9.03;7.27;;;;;;;17.05;51.19;99955.09;5075266;28;20216;-79
2021/10/17 20:19:46;;;;;;;8.37;7.07;;;;;;;16.90;51.28;99953.03;5091919;23;20235;-78
2021/10/17 20:22:18;;;;;;;7.83;7.03;;;;;;;16.85;51.40;99944.84;5068746;28;20277;-78
2021/10/17 20:24:54;;;;;;;8.30;7.03;;;;;;;16.88;51.49;99957.06;5087188;22;20217;31
2021/10/17 20:27:26;;;;;;;9.23;7.77;;;;;;;16.82;51.72;99963.47;5044848;23;20229;-79
2021/10/17 20:29:54;;;;;;;9.80;7.97;;;;;;;16.68;51.20;99963.84;5058837;28;20220;-80
2021/10/17 20:32:31;;;;;;;8.83;7.67;;;;;;;16.60;51.62;99952.66;5024105;28;20249;-78
2021/10/17 20:35:04;;;;;;;9.20;7.47;;;;;;;16.57;51.80;99969.34;5056296;23;20250;-78
2021/10/17 20:39:17;;;;;;;9.90;7.67;;;;;;;16.50;51.80;99966.00;5022732;28;20546;-79
2021/10/17 20:40:49;;;;;;;8.43;7.23;;;;;;;16.40;51.63;99960.47;5028085;28;20234;-78
2021/10/17 20:43:50;;;;;;;8.50;7.47;;;;;;;16.41;51.70;99971.03;5050636;28;20236;-79
2021/10/17 20:46:21;;;;;;;11.20;7.30;;;;;;;16.33;51.90;99967.94;5003303;28;20207;-78
2021/10/17 20:49:08;;;;;;;9.87;7.70;;;;;;;16.14;51.92;99951.19;5111837;23;20234;-79
2021/10/17 20:51:41;;;;;;;8.67;7.77;;;;;;;16.09;51.99;99972.72;5026376;23;20248;-78
2021/10/17 20:54:13;;;;;;;9.67;8.33;;;;;;;16.03;52.22;99971.00;5036286;23;20249;-78
2021/10/17 20:56:43;;;;;;;10.93;8.20;;;;;;;15.93;51.84;99965.44;5074681;28;20240;-79
2021/10/17 20:59:14;;;;;;;10.03;8.90;;;;;;;15.94;52.23;99977.88;5057669;28;20189;-78
2021/10/17 21:01:59;;;;;;;9.17;8.30;;;;;;;15.90;52.09;99982.97;5057350;28;20228;-79
2021/10/17 21:04:59;;;;;;;9.50;8.50;;;;;;;15.86;52.18;99984.53;5075122;28;20232;-78
2021/10/17 21:07:35;;;;;;;11.13;8.10;;;;;;;15.72;52.19;99981.31;5075380;28;20249;-79
2021/10/17 21:10:22;;;;;;;11.03;9.03;;;;;;;15.61;52.14;99974.13;5058578;28;20225;-78
2021/10/17 21:12:53;;;;;;;9.90;8.90;;;;;;;15.59;52.19;99983.50;5088851;23;20221;-79
2021/10/17 21:15:56;;;;;;;10.70;8.20;;;;;;;15.51;52.25;99986.59;5090988;23;20259;-80
2021/10/17 21:19:08;;;;;;;9.73;8.47;;;;;;;15.33;52.24;99987.59;5079949;23;20248;-79
2021/10/17 21:22:26;;;;;;;11.13;9.23;;;;;;;15.24;52.46;99986.34;5081360;23;20289;-79
2021/10/17 21:25:14;;;;;;;10.83;8.87;;;;;;;15.11;52.46;99983.94;5097258;22;20224;-79
2021/10/17 21:27:59;;;;;;;10.40;9.30;;;;;;;15.06;53.37;100000.03;5045706;23;20204;-79
2021/10/17 21:30:48;;;;;;;9.40;8.40;;;;;;;15.02;53.20;99983.53;5059405;23;20259;-79
2021/10/17 21:33:30;;;;;;;10.67;9.37;;;;;;;15.04;52.18;99997.56;5037519;23;20223;-79
2021/10/17 21:36:15;;;;;;;10.87;9.77;;;;;;;14.93;52.75;99996.53;5084866;23;20191;31